sensor_id;sensor_type;location;lat;lon;timestamp;P1;durP1;ratioP1;P2;durP2;ratioP2
68377;SDS011;55322;48.146;11.516;2023-02-21T00:02:12;6.78;;;1.20;;
68377;SDS011;55322;48.146;11.516;2023-02-21T00:04:56;5.80;;;1.30;;
68377;SDS011;55322;48.146;11.516;2023-02-21T00:07:40;7.15;;;1.33;;
68377;SDS011;55322;48.146;11.516;2023-02-21T00:10:25;5.05;;;1.10;;
68377;SDS011;55322;48.146;11.516;2023-02-21T00:13:09;6.22;;;1.38;;
68377;SDS011;55322;48.146;11.516;2023-02-21T00:15:53;6.03;;;1.30;;
68377;SDS011;55322;48.146;11.516;2023-02-21T00:18:38;5.10;;;1.00;;
68377;SDS011;55322;48.146;11.516;2023-02-21T00:21:22;5.05;;;1.33;;
68377;SDS011;55322;48.146;11.516;2023-02-21T00:24:07;6.43;;;1.40;;
68377;SDS011;55322;48.146;11.516;2023-02-21T00:26:55;5.10;;;1.30;;
68377;SDS011;55322;48.146;11.516;2023-02-21T00:29:39;6.00;;;1.25;;
68377;SDS011;55322;48.146;11.516;2023-02-21T00:32:23;5.53;;;1.50;;
68377;SDS011;55322;48.146;11.516;2023-02-21T00:35:07;6.95;;;1.13;;
68377;SDS011;55322;48.146;11.516;2023-02-21T00:37:51;6.05;;;1.48;;
68377;SDS011;55322;48.146;11.516;2023-02-21T00:40:36;5.47;;;1.40;;
68377;SDS011;55322;48.146;11.516;2023-02-21T00:43:26;6.35;;;1.50;;
68377;SDS011;55322;48.146;11.516;2023-02-21T00:46:11;5.50;;;1.37;;
68377;SDS011;55322;48.146;11.516;2023-02-21T00:48:55;7.00;;;1.48;;
68377;SDS011;55322;48.146;11.516;2023-02-21T00:51:39;5.43;;;1.33;;
68377;SDS011;55322;48.146;11.516;2023-02-21T00:54:23;5.22;;;1.42;;
68377;SDS011;55322;48.146;11.516;2023-02-21T00:57:07;7.18;;;1.38;;
68377;SDS011;55322;48.146;11.516;2023-02-21T00:59:51;7.93;;;1.50;;
68377;SDS011;55322;48.146;11.516;2023-02-21T01:02:35;7.65;;;1.27;;
68377;SDS011;55322;48.146;11.516;2023-02-21T01:05:19;7.45;;;1.60;;
68377;SDS011;55322;48.146;11.516;2023-02-21T01:08:03;5.60;;;1.38;;
68377;SDS011;55322;48.146;11.516;2023-02-21T01:10:47;7.72;;;1.73;;
68377;SDS011;55322;48.146;11.516;2023-02-21T01:13:32;4.80;;;1.20;;
68377;SDS011;55322;48.146;11.516;2023-02-21T01:16:16;7.30;;;1.27;;
68377;SDS011;55322;48.146;11.516;2023-02-21T01:19:00;7.45;;;1.48;;
68377;SDS011;55322;48.146;11.516;2023-02-21T01:21:44;6.00;;;1.60;;
68377;SDS011;55322;48.146;11.516;2023-02-21T01:24:27;5.60;;;1.40;;
68377;SDS011;55322;48.146;11.516;2023-02-21T01:27:12;5.30;;;1.60;;
68377;SDS011;55322;48.146;11.516;2023-02-21T01:29:55;6.47;;;1.52;;
68377;SDS011;55322;48.146;11.516;2023-02-21T01:32:40;5.32;;;1.58;;
68377;SDS011;55322;48.146;11.516;2023-02-21T01:35:24;5.85;;;1.52;;
68377;SDS011;55322;48.146;11.516;2023-02-21T01:38:08;5.68;;;1.45;;
68377;SDS011;55322;48.146;11.516;2023-02-21T01:40:52;5.23;;;1.40;;
68377;SDS011;55322;48.146;11.516;2023-02-21T01:43:36;6.32;;;1.60;;
68377;SDS011;55322;48.146;11.516;2023-02-21T01:46:20;6.30;;;1.60;;
68377;SDS011;55322;48.146;11.516;2023-02-21T01:49:08;8.25;;;1.83;;
68377;SDS011;55322;48.146;11.516;2023-02-21T01:51:58;7.18;;;1.80;;
68377;SDS011;55322;48.146;11.516;2023-02-21T01:57:12;5.40;;;1.50;;
68377;SDS011;55322;48.146;11.516;2023-02-21T01:59:57;6.80;;;1.60;;
68377;SDS011;55322;48.146;11.516;2023-02-21T02:02:48;5.90;;;1.48;;
68377;SDS011;55322;48.146;11.516;2023-02-21T02:05:37;6.20;;;1.60;;
68377;SDS011;55322;48.146;11.516;2023-02-21T02:08:24;5.38;;;1.58;;
68377;SDS011;55322;48.146;11.516;2023-02-21T02:11:36;8.88;;;1.88;;
68377;SDS011;55322;48.146;11.516;2023-02-21T02:14:50;7.35;;;1.45;;
68377;SDS011;55322;48.146;11.516;2023-02-21T02:22:53;6.25;;;1.50;;
68377;SDS011;55322;48.146;11.516;2023-02-21T02:31:10;6.47;;;1.60;;
68377;SDS011;55322;48.146;11.516;2023-02-21T02:36:33;5.65;;;1.55;;
68377;SDS011;55322;48.146;11.516;2023-02-21T02:39:09;5.68;;;1.40;;
68377;SDS011;55322;48.146;11.516;2023-02-21T02:44:52;5.50;;;1.52;;
68377;SDS011;55322;48.146;11.516;2023-02-21T02:47:25;5.17;;;1.30;;
68377;SDS011;55322;48.146;11.516;2023-02-21T02:49:55;5.28;;;1.40;;
68377;SDS011;55322;48.146;11.516;2023-02-21T02:52:23;6.03;;;1.58;;
68377;SDS011;55322;48.146;11.516;2023-02-21T02:54:58;4.60;;;1.10;;
68377;SDS011;55322;48.146;11.516;2023-02-21T02:57:25;6.63;;;1.73;;
68377;SDS011;55322;48.146;11.516;2023-02-21T02:59:53;5.82;;;1.42;;
68377;SDS011;55322;48.146;11.516;2023-02-21T03:07:56;6.20;;;1.90;;
68377;SDS011;55322;48.146;11.516;2023-02-21T03:10:31;7.57;;;1.87;;
68377;SDS011;55322;48.146;11.516;2023-02-21T03:15:35;6.20;;;1.43;;
68377;SDS011;55322;48.146;11.516;2023-02-21T03:21:09;6.70;;;1.65;;
68377;SDS011;55322;48.146;11.516;2023-02-21T03:23:38;5.53;;;1.05;;
68377;SDS011;55322;48.146;11.516;2023-02-21T03:26:05;5.93;;;1.30;;
68377;SDS011;55322;48.146;11.516;2023-02-21T03:28:35;6.20;;;1.33;;
68377;SDS011;55322;48.146;11.516;2023-02-21T03:31:01;5.53;;;1.50;;
68377;SDS011;55322;48.146;11.516;2023-02-21T03:33:28;7.82;;;1.40;;
68377;SDS011;55322;48.146;11.516;2023-02-21T03:35:54;6.03;;;1.57;;
68377;SDS011;55322;48.146;11.516;2023-02-21T03:38:23;6.47;;;1.60;;
68377;SDS011;55322;48.146;11.516;2023-02-21T03:40:52;5.05;;;1.30;;
68377;SDS011;55322;48.146;11.516;2023-02-21T03:43:17;5.83;;;1.40;;
68377;SDS011;55322;48.146;11.516;2023-02-21T03:45:42;5.00;;;1.20;;
68377;SDS011;55322;48.146;11.516;2023-02-21T03:48:08;9.50;;;1.80;;
68377;SDS011;55322;48.146;11.516;2023-02-21T03:50:34;4.83;;;1.47;;
68377;SDS011;55322;48.146;11.516;2023-02-21T03:52:59;5.07;;;1.27;;
68377;SDS011;55322;48.146;11.516;2023-02-21T03:55:25;6.70;;;1.50;;
68377;SDS011;55322;48.146;11.516;2023-02-21T03:57:50;6.45;;;1.60;;
68377;SDS011;55322;48.146;11.516;2023-02-21T04:00:15;6.07;;;1.38;;
68377;SDS011;55322;48.146;11.516;2023-02-21T04:02:41;8.47;;;1.57;;
68377;SDS011;55322;48.146;11.516;2023-02-21T04:05:07;8.07;;;1.58;;
68377;SDS011;55322;48.146;11.516;2023-02-21T04:07:32;6.17;;;1.63;;
68377;SDS011;55322;48.146;11.516;2023-02-21T04:09:58;5.17;;;1.43;;
68377;SDS011;55322;48.146;11.516;2023-02-21T04:12:23;6.40;;;1.50;;
68377;SDS011;55322;48.146;11.516;2023-02-21T04:14:50;6.50;;;1.52;;
68377;SDS011;55322;48.146;11.516;2023-02-21T04:17:20;7.20;;;1.67;;
68377;SDS011;55322;48.146;11.516;2023-02-21T04:19:46;6.75;;;1.52;;
68377;SDS011;55322;48.146;11.516;2023-02-21T04:22:11;5.57;;;1.60;;
68377;SDS011;55322;48.146;11.516;2023-02-21T04:24:37;6.47;;;1.60;;
68377;SDS011;55322;48.146;11.516;2023-02-21T04:27:02;6.43;;;1.60;;
68377;SDS011;55322;48.146;11.516;2023-02-21T04:29:27;7.30;;;1.90;;
68377;SDS011;55322;48.146;11.516;2023-02-21T04:31:53;7.05;;;1.70;;
68377;SDS011;55322;48.146;11.516;2023-02-21T04:34:19;5.85;;;1.50;;
68377;SDS011;55322;48.146;11.516;2023-02-21T04:36:45;5.82;;;1.73;;
68377;SDS011;55322;48.146;11.516;2023-02-21T04:39:10;6.50;;;1.60;;
68377;SDS011;55322;48.146;11.516;2023-02-21T04:41:36;5.57;;;1.77;;
68377;SDS011;55322;48.146;11.516;2023-02-21T04:44:01;6.40;;;1.60;;
68377;SDS011;55322;48.146;11.516;2023-02-21T04:46:26;6.07;;;1.40;;
68377;SDS011;55322;48.146;11.516;2023-02-21T04:48:52;5.60;;;1.60;;
68377;SDS011;55322;48.146;11.516;2023-02-21T04:51:18;6.20;;;1.83;;
68377;SDS011;55322;48.146;11.516;2023-02-21T04:53:47;6.43;;;1.80;;
68377;SDS011;55322;48.146;11.516;2023-02-21T04:56:13;6.78;;;1.67;;
68377;SDS011;55322;48.146;11.516;2023-02-21T04:58:41;7.22;;;1.80;;
68377;SDS011;55322;48.146;11.516;2023-02-21T05:01:06;6.27;;;1.77;;
68377;SDS011;55322;48.146;11.516;2023-02-21T05:03:32;7.13;;;1.40;;
68377;SDS011;55322;48.146;11.516;2023-02-21T05:05:57;7.17;;;1.50;;
68377;SDS011;55322;48.146;11.516;2023-02-21T05:08:22;6.33;;;1.40;;
68377;SDS011;55322;48.146;11.516;2023-02-21T05:10:49;5.93;;;1.52;;
68377;SDS011;55322;48.146;11.516;2023-02-21T05:13:14;8.02;;;1.80;;
68377;SDS011;55322;48.146;11.516;2023-02-21T05:15:40;7.13;;;1.83;;
68377;SDS011;55322;48.146;11.516;2023-02-21T05:18:06;7.78;;;2.00;;
68377;SDS011;55322;48.146;11.516;2023-02-21T05:20:31;7.67;;;1.50;;
68377;SDS011;55322;48.146;11.516;2023-02-21T05:22:56;5.30;;;1.50;;
68377;SDS011;55322;48.146;11.516;2023-02-21T05:25:22;9.17;;;1.90;;
68377;SDS011;55322;48.146;11.516;2023-02-21T05:27:48;6.43;;;1.73;;
68377;SDS011;55322;48.146;11.516;2023-02-21T05:30:16;6.78;;;1.92;;
68377;SDS011;55322;48.146;11.516;2023-02-21T05:32:42;6.28;;;1.90;;
68377;SDS011;55322;48.146;11.516;2023-02-21T05:35:09;6.25;;;1.80;;
68377;SDS011;55322;48.146;11.516;2023-02-21T05:37:35;7.25;;;1.70;;
68377;SDS011;55322;48.146;11.516;2023-02-21T05:40:01;6.68;;;1.75;;
68377;SDS011;55322;48.146;11.516;2023-02-21T05:42:27;5.93;;;1.63;;
68377;SDS011;55322;48.146;11.516;2023-02-21T05:44:52;5.97;;;1.80;;
68377;SDS011;55322;48.146;11.516;2023-02-21T05:47:17;7.18;;;1.90;;
68377;SDS011;55322;48.146;11.516;2023-02-21T05:49:43;6.93;;;1.60;;
68377;SDS011;55322;48.146;11.516;2023-02-21T05:52:12;6.03;;;1.50;;
68377;SDS011;55322;48.146;11.516;2023-02-21T05:54:39;6.88;;;1.48;;
68377;SDS011;55322;48.146;11.516;2023-02-21T05:57:05;5.73;;;1.63;;
68377;SDS011;55322;48.146;11.516;2023-02-21T05:59:30;5.80;;;1.57;;
68377;SDS011;55322;48.146;11.516;2023-02-21T06:01:55;7.30;;;1.60;;
68377;SDS011;55322;48.146;11.516;2023-02-21T06:04:21;5.70;;;1.57;;
68377;SDS011;55322;48.146;11.516;2023-02-21T06:06:47;6.03;;;1.50;;
68377;SDS011;55322;48.146;11.516;2023-02-21T06:09:12;5.73;;;1.70;;
68377;SDS011;55322;48.146;11.516;2023-02-21T06:11:38;8.60;;;1.63;;
68377;SDS011;55322;48.146;11.516;2023-02-21T06:14:05;13.75;;;1.98;;
68377;SDS011;55322;48.146;11.516;2023-02-21T06:16:36;6.25;;;1.73;;
68377;SDS011;55322;48.146;11.516;2023-02-21T06:19:02;5.38;;;1.52;;
68377;SDS011;55322;48.146;11.516;2023-02-21T06:21:29;7.88;;;1.48;;
68377;SDS011;55322;48.146;11.516;2023-02-21T06:23:55;6.57;;;1.30;;
68377;SDS011;55322;48.146;11.516;2023-02-21T06:26:21;9.13;;;1.33;;
68377;SDS011;55322;48.146;11.516;2023-02-21T06:28:47;6.38;;;1.60;;
68377;SDS011;55322;48.146;11.516;2023-02-21T06:31:13;6.00;;;1.52;;
68377;SDS011;55322;48.146;11.516;2023-02-21T06:33:40;5.65;;;1.27;;
68377;SDS011;55322;48.146;11.516;2023-02-21T06:36:06;7.33;;;1.53;;
68377;SDS011;55322;48.146;11.516;2023-02-21T06:38:33;7.28;;;1.77;;
68377;SDS011;55322;48.146;11.516;2023-02-21T06:40:59;9.53;;;2.10;;
68377;SDS011;55322;48.146;11.516;2023-02-21T06:43:24;8.63;;;1.40;;
68377;SDS011;55322;48.146;11.516;2023-02-21T06:45:50;6.90;;;1.40;;
68377;SDS011;55322;48.146;11.516;2023-02-21T06:48:15;7.85;;;1.80;;
68377;SDS011;55322;48.146;11.516;2023-02-21T06:50:41;12.82;;;2.03;;
68377;SDS011;55322;48.146;11.516;2023-02-21T06:53:07;7.53;;;1.80;;
68377;SDS011;55322;48.146;11.516;2023-02-21T06:55:32;7.77;;;1.90;;
68377;SDS011;55322;48.146;11.516;2023-02-21T06:57:58;5.50;;;1.43;;
68377;SDS011;55322;48.146;11.516;2023-02-21T07:00:23;7.17;;;1.60;;
68377;SDS011;55322;48.146;11.516;2023-02-21T07:02:50;6.90;;;1.90;;
68377;SDS011;55322;48.146;11.516;2023-02-21T07:05:16;8.88;;;1.70;;
68377;SDS011;55322;48.146;11.516;2023-02-21T07:07:42;8.77;;;1.70;;
68377;SDS011;55322;48.146;11.516;2023-02-21T07:10:07;7.93;;;1.77;;
68377;SDS011;55322;48.146;11.516;2023-02-21T07:12:32;6.65;;;1.50;;
68377;SDS011;55322;48.146;11.516;2023-02-21T07:14:58;7.63;;;1.60;;
68377;SDS011;55322;48.146;11.516;2023-02-21T07:17:23;7.97;;;1.40;;
68377;SDS011;55322;48.146;11.516;2023-02-21T07:19:48;6.87;;;1.70;;
68377;SDS011;55322;48.146;11.516;2023-02-21T07:22:14;8.40;;;1.40;;
68377;SDS011;55322;48.146;11.516;2023-02-21T07:24:39;7.13;;;1.50;;
68377;SDS011;55322;48.146;11.516;2023-02-21T07:27:05;16.00;;;1.70;;
68377;SDS011;55322;48.146;11.516;2023-02-21T07:29:31;10.07;;;1.60;;
68377;SDS011;55322;48.146;11.516;2023-02-21T07:31:56;6.93;;;1.47;;
68377;SDS011;55322;48.146;11.516;2023-02-21T07:34:21;8.85;;;1.60;;
68377;SDS011;55322;48.146;11.516;2023-02-21T07:36:47;6.87;;;1.43;;
68377;SDS011;55322;48.146;11.516;2023-02-21T07:39:13;9.60;;;1.50;;
68377;SDS011;55322;48.146;11.516;2023-02-21T07:41:39;6.70;;;1.43;;
68377;SDS011;55322;48.146;11.516;2023-02-21T07:44:04;6.27;;;1.37;;
68377;SDS011;55322;48.146;11.516;2023-02-21T07:46:30;6.47;;;1.38;;
68377;SDS011;55322;48.146;11.516;2023-02-21T07:48:55;6.27;;;1.23;;
68377;SDS011;55322;48.146;11.516;2023-02-21T07:51:21;7.93;;;1.70;;
68377;SDS011;55322;48.146;11.516;2023-02-21T07:53:47;9.32;;;1.73;;
68377;SDS011;55322;48.146;11.516;2023-02-21T07:56:12;9.83;;;1.50;;
68377;SDS011;55322;48.146;11.516;2023-02-21T07:58:38;5.53;;;1.60;;
68377;SDS011;55322;48.146;11.516;2023-02-21T08:01:04;5.87;;;1.67;;
68377;SDS011;55322;48.146;11.516;2023-02-21T08:03:30;7.28;;;1.80;;
68377;SDS011;55322;48.146;11.516;2023-02-21T08:05:56;7.45;;;1.58;;
68377;SDS011;55322;48.146;11.516;2023-02-21T08:08:22;6.40;;;1.67;;
68377;SDS011;55322;48.146;11.516;2023-02-21T08:10:47;9.23;;;2.37;;
68377;SDS011;55322;48.146;11.516;2023-02-21T08:13:13;8.27;;;1.70;;
68377;SDS011;55322;48.146;11.516;2023-02-21T08:15:38;8.90;;;1.80;;
68377;SDS011;55322;48.146;11.516;2023-02-21T08:18:04;7.17;;;1.60;;
68377;SDS011;55322;48.146;11.516;2023-02-21T08:20:29;7.37;;;1.80;;
68377;SDS011;55322;48.146;11.516;2023-02-21T08:22:54;7.50;;;1.87;;
68377;SDS011;55322;48.146;11.516;2023-02-21T08:25:20;6.97;;;1.73;;
68377;SDS011;55322;48.146;11.516;2023-02-21T08:27:45;8.63;;;1.80;;
68377;SDS011;55322;48.146;11.516;2023-02-21T08:30:13;7.43;;;1.75;;
68377;SDS011;55322;48.146;11.516;2023-02-21T08:32:40;7.97;;;1.73;;
68377;SDS011;55322;48.146;11.516;2023-02-21T08:35:06;6.60;;;1.67;;
68377;SDS011;55322;48.146;11.516;2023-02-21T08:37:32;6.78;;;1.50;;
68377;SDS011;55322;48.146;11.516;2023-02-21T08:40:00;5.90;;;1.70;;
68377;SDS011;55322;48.146;11.516;2023-02-21T08:42:26;8.50;;;1.87;;
68377;SDS011;55322;48.146;11.516;2023-02-21T08:44:52;7.20;;;1.70;;
68377;SDS011;55322;48.146;11.516;2023-02-21T08:47:17;8.90;;;1.57;;
68377;SDS011;55322;48.146;11.516;2023-02-21T08:49:43;6.73;;;1.63;;
68377;SDS011;55322;48.146;11.516;2023-02-21T08:52:15;5.90;;;1.50;;
68377;SDS011;55322;48.146;11.516;2023-02-21T08:54:42;8.20;;;1.85;;
68377;SDS011;55322;48.146;11.516;2023-02-21T08:57:08;7.20;;;1.93;;
68377;SDS011;55322;48.146;11.516;2023-02-21T08:59:33;8.52;;;1.70;;
68377;SDS011;55322;48.146;11.516;2023-02-21T09:02:01;8.20;;;1.50;;
68377;SDS011;55322;48.146;11.516;2023-02-21T09:04:27;6.07;;;1.37;;
68377;SDS011;55322;48.146;11.516;2023-02-21T09:06:52;5.10;;;1.40;;
68377;SDS011;55322;48.146;11.516;2023-02-21T09:09:18;5.90;;;1.40;;
68377;SDS011;55322;48.146;11.516;2023-02-21T09:11:44;6.27;;;1.60;;
68377;SDS011;55322;48.146;11.516;2023-02-21T09:14:12;8.13;;;1.90;;
68377;SDS011;55322;48.146;11.516;2023-02-21T09:16:38;5.88;;;1.70;;
68377;SDS011;55322;48.146;11.516;2023-02-21T09:19:03;5.50;;;1.47;;
68377;SDS011;55322;48.146;11.516;2023-02-21T09:21:30;6.78;;;1.50;;
68377;SDS011;55322;48.146;11.516;2023-02-21T09:23:56;4.93;;;1.30;;
68377;SDS011;55322;48.146;11.516;2023-02-21T09:26:23;5.47;;;1.20;;
68377;SDS011;55322;48.146;11.516;2023-02-21T09:28:49;5.47;;;1.40;;
68377;SDS011;55322;48.146;11.516;2023-02-21T09:31:15;5.68;;;1.30;;
68377;SDS011;55322;48.146;11.516;2023-02-21T09:33:43;6.22;;;1.48;;
68377;SDS011;55322;48.146;11.516;2023-02-21T09:36:09;7.47;;;1.50;;
68377;SDS011;55322;48.146;11.516;2023-02-21T09:38:35;8.93;;;1.33;;
68377;SDS011;55322;48.146;11.516;2023-02-21T09:41:01;9.07;;;1.30;;
68377;SDS011;55322;48.146;11.516;2023-02-21T09:43:36;5.20;;;1.20;;
68377;SDS011;55322;48.146;11.516;2023-02-21T09:46:05;5.45;;;1.73;;
68377;SDS011;55322;48.146;11.516;2023-02-21T09:48:36;6.82;;;1.20;;
68377;SDS011;55322;48.146;11.516;2023-02-21T09:51:04;5.78;;;1.10;;
68377;SDS011;55322;48.146;11.516;2023-02-21T09:53:34;6.77;;;1.27;;
68377;SDS011;55322;48.146;11.516;2023-02-21T09:56:06;5.35;;;1.30;;
68377;SDS011;55322;48.146;11.516;2023-02-21T09:58:38;4.70;;;1.20;;
68377;SDS011;55322;48.146;11.516;2023-02-21T10:01:11;5.72;;;1.13;;
68377;SDS011;55322;48.146;11.516;2023-02-21T10:09:34;4.30;;;1.02;;
68377;SDS011;55322;48.146;11.516;2023-02-21T10:12:09;5.00;;;1.17;;
68377;SDS011;55322;48.146;11.516;2023-02-21T10:23:18;6.05;;;1.20;;
68377;SDS011;55322;48.146;11.516;2023-02-21T10:25:48;5.32;;;1.23;;
68377;SDS011;55322;48.146;11.516;2023-02-21T10:28:20;4.32;;;1.00;;
68377;SDS011;55322;48.146;11.516;2023-02-21T10:30:47;4.72;;;0.88;;
68377;SDS011;55322;48.146;11.516;2023-02-21T10:33:14;4.23;;;0.80;;
68377;SDS011;55322;48.146;11.516;2023-02-21T10:35:40;4.20;;;0.70;;
68377;SDS011;55322;48.146;11.516;2023-02-21T10:38:06;4.87;;;1.30;;
68377;SDS011;55322;48.146;11.516;2023-02-21T10:40:35;5.60;;;1.10;;
68377;SDS011;55322;48.146;11.516;2023-02-21T10:45:44;4.90;;;0.80;;
68377;SDS011;55322;48.146;11.516;2023-02-21T10:48:26;5.55;;;1.17;;
68377;SDS011;55322;48.146;11.516;2023-02-21T10:53:23;4.80;;;1.00;;
68377;SDS011;55322;48.146;11.516;2023-02-21T10:58:38;5.22;;;0.82;;
68377;SDS011;55322;48.146;11.516;2023-02-21T11:03:47;5.07;;;0.77;;
68377;SDS011;55322;48.146;11.516;2023-02-21T11:08:55;5.00;;;0.90;;
68377;SDS011;55322;48.146;11.516;2023-02-21T11:11:32;4.50;;;1.00;;
68377;SDS011;55322;48.146;11.516;2023-02-21T11:14:41;6.38;;;1.30;;
68377;SDS011;55322;48.146;11.516;2023-02-21T11:22:07;4.40;;;0.80;;
68377;SDS011;55322;48.146;11.516;2023-02-21T11:24:33;4.53;;;0.95;;
68377;SDS011;55322;48.146;11.516;2023-02-21T11:27:08;4.10;;;0.80;;
68377;SDS011;55322;48.146;11.516;2023-02-21T11:29:33;4.60;;;0.97;;
68377;SDS011;55322;48.146;11.516;2023-02-21T11:31:59;4.55;;;0.80;;
68377;SDS011;55322;48.146;11.516;2023-02-21T11:34:37;4.20;;;0.90;;
68377;SDS011;55322;48.146;11.516;2023-02-21T11:37:10;4.80;;;0.90;;
68377;SDS011;55322;48.146;11.516;2023-02-21T11:39:35;4.10;;;1.00;;
68377;SDS011;55322;48.146;11.516;2023-02-21T11:42:02;4.60;;;0.87;;
68377;SDS011;55322;48.146;11.516;2023-02-21T11:44:46;4.60;;;0.80;;
68377;SDS011;55322;48.146;11.516;2023-02-21T11:47:15;5.53;;;1.00;;
68377;SDS011;55322;48.146;11.516;2023-02-21T11:52:45;4.50;;;1.00;;
68377;SDS011;55322;48.146;11.516;2023-02-21T11:55:34;5.22;;;0.82;;
68377;SDS011;55322;48.146;11.516;2023-02-21T12:00:29;4.85;;;0.70;;
68377;SDS011;55322;48.146;11.516;2023-02-21T12:29:58;4.47;;;0.82;;
68377;SDS011;55322;48.146;11.516;2023-02-21T12:38:07;3.67;;;0.57;;
68377;SDS011;55322;48.146;11.516;2023-02-21T12:40:43;4.47;;;0.60;;
68377;SDS011;55322;48.146;11.516;2023-02-21T12:51:41;4.50;;;0.90;;
68377;SDS011;55322;48.146;11.516;2023-02-21T12:57:10;4.35;;;0.80;;
68377;SDS011;55322;48.146;11.516;2023-02-21T12:59:44;6.45;;;0.90;;
68377;SDS011;55322;48.146;11.516;2023-02-21T13:05:18;4.80;;;0.70;;
68377;SDS011;55322;48.146;11.516;2023-02-21T13:10:33;3.42;;;0.60;;
68377;SDS011;55322;48.146;11.516;2023-02-21T13:13:11;4.65;;;0.73;;
68377;SDS011;55322;48.146;11.516;2023-02-21T13:15:40;5.13;;;0.90;;
68377;SDS011;55322;48.146;11.516;2023-02-21T13:18:09;4.60;;;0.97;;
68377;SDS011;55322;48.146;11.516;2023-02-21T13:20:42;4.25;;;0.90;;
68377;SDS011;55322;48.146;11.516;2023-02-21T13:28:40;4.10;;;0.75;;
68377;SDS011;55322;48.146;11.516;2023-02-21T13:31:16;4.07;;;0.70;;
68377;SDS011;55322;48.146;11.516;2023-02-21T13:33:47;5.03;;;0.75;;
68377;SDS011;55322;48.146;11.516;2023-02-21T13:41:52;4.88;;;0.90;;
68377;SDS011;55322;48.146;11.516;2023-02-21T13:44:25;4.20;;;0.70;;
68377;SDS011;55322;48.146;11.516;2023-02-21T13:46:58;5.28;;;1.02;;
68377;SDS011;55322;48.146;11.516;2023-02-21T13:49:40;4.10;;;0.80;;
68377;SDS011;55322;48.146;11.516;2023-02-21T13:57:43;3.93;;;0.60;;
68377;SDS011;55322;48.146;11.516;2023-02-21T14:00:51;6.22;;;0.95;;
68377;SDS011;55322;48.146;11.516;2023-02-21T14:08:14;4.15;;;0.50;;
68377;SDS011;55322;48.146;11.516;2023-02-21T14:11:13;4.47;;;0.67;;
68377;SDS011;55322;48.146;11.516;2023-02-21T14:13:51;4.38;;;0.50;;
68377;SDS011;55322;48.146;11.516;2023-02-21T14:16:21;4.50;;;0.65;;
68377;SDS011;55322;48.146;11.516;2023-02-21T14:18:55;4.75;;;0.50;;
68377;SDS011;55322;48.146;11.516;2023-02-21T14:23:48;4.83;;;0.70;;
68377;SDS011;55322;48.146;11.516;2023-02-21T14:29:01;3.60;;;0.70;;
68377;SDS011;55322;48.146;11.516;2023-02-21T14:34:16;2.95;;;0.50;;
68377;SDS011;55322;48.146;11.516;2023-02-21T14:36:47;4.43;;;0.60;;
68377;SDS011;55322;48.146;11.516;2023-02-21T14:39:14;3.97;;;0.60;;
68377;SDS011;55322;48.146;11.516;2023-02-21T14:52:01;4.32;;;1.10;;
68377;SDS011;55322;48.146;11.516;2023-02-21T14:57:37;2.42;;;0.40;;
68377;SDS011;55322;48.146;11.516;2023-02-21T15:00:16;3.55;;;0.50;;
68377;SDS011;55322;48.146;11.516;2023-02-21T15:03:06;3.22;;;0.50;;
68377;SDS011;55322;48.146;11.516;2023-02-21T15:08:17;8.57;;;0.90;;
68377;SDS011;55322;48.146;11.516;2023-02-21T15:10:55;3.05;;;0.50;;
68377;SDS011;55322;48.146;11.516;2023-02-21T15:13:29;3.53;;;0.50;;
68377;SDS011;55322;48.146;11.516;2023-02-21T15:16:06;3.92;;;0.50;;
68377;SDS011;55322;48.146;11.516;2023-02-21T15:18:38;2.85;;;0.43;;
68377;SDS011;55322;48.146;11.516;2023-02-21T15:21:18;3.70;;;0.40;;
68377;SDS011;55322;48.146;11.516;2023-02-21T15:23:45;4.68;;;1.15;;
68377;SDS011;55322;48.146;11.516;2023-02-21T15:26:25;4.70;;;0.50;;
68377;SDS011;55322;48.146;11.516;2023-02-21T15:29:05;3.58;;;0.45;;
68377;SDS011;55322;48.146;11.516;2023-02-21T15:31:33;3.10;;;0.55;;
68377;SDS011;55322;48.146;11.516;2023-02-21T15:34:00;2.83;;;0.40;;
68377;SDS011;55322;48.146;11.516;2023-02-21T15:36:25;6.70;;;0.70;;
68377;SDS011;55322;48.146;11.516;2023-02-21T15:38:55;7.87;;;0.80;;
68377;SDS011;55322;48.146;11.516;2023-02-21T15:41:44;3.80;;;0.47;;
68377;SDS011;55322;48.146;11.516;2023-02-21T15:44:14;4.07;;;0.50;;
68377;SDS011;55322;48.146;11.516;2023-02-21T15:47:11;18.40;;;8.57;;
68377;SDS011;55322;48.146;11.516;2023-02-21T15:49:40;21.85;;;10.65;;
68377;SDS011;55322;48.146;11.516;2023-02-21T15:52:24;37.57;;;20.93;;
68377;SDS011;55322;48.146;11.516;2023-02-21T16:00:27;11.43;;;4.18;;
68377;SDS011;55322;48.146;11.516;2023-02-21T16:05:50;7.93;;;2.07;;
68377;SDS011;55322;48.146;11.516;2023-02-21T16:08:16;6.57;;;0.90;;
68377;SDS011;55322;48.146;11.516;2023-02-21T16:10:42;4.37;;;0.80;;
68377;SDS011;55322;48.146;11.516;2023-02-21T16:13:08;6.80;;;1.67;;
68377;SDS011;55322;48.146;11.516;2023-02-21T16:15:34;7.55;;;2.40;;
68377;SDS011;55322;48.146;11.516;2023-02-21T16:18:02;19.20;;;5.78;;
68377;SDS011;55322;48.146;11.516;2023-02-21T16:20:35;21.70;;;5.82;;
68377;SDS011;55322;48.146;11.516;2023-02-21T16:23:13;17.07;;;6.07;;
68377;SDS011;55322;48.146;11.516;2023-02-21T16:26:01;10.55;;;3.88;;
68377;SDS011;55322;48.146;11.516;2023-02-21T16:28:34;10.85;;;2.83;;
68377;SDS011;55322;48.146;11.516;2023-02-21T16:31:01;12.55;;;3.30;;
68377;SDS011;55322;48.146;11.516;2023-02-21T16:33:28;6.75;;;1.70;;
68377;SDS011;55322;48.146;11.516;2023-02-21T16:35:54;7.73;;;1.40;;
68377;SDS011;55322;48.146;11.516;2023-02-21T16:38:22;7.60;;;2.13;;
68377;SDS011;55322;48.146;11.516;2023-02-21T16:40:48;7.07;;;1.90;;
68377;SDS011;55322;48.146;11.516;2023-02-21T16:43:17;9.20;;;2.70;;
68377;SDS011;55322;48.146;11.516;2023-02-21T16:45:42;10.30;;;3.30;;
68377;SDS011;55322;48.146;11.516;2023-02-21T16:48:09;11.93;;;3.60;;
68377;SDS011;55322;48.146;11.516;2023-02-21T16:50:40;14.00;;;4.53;;
68377;SDS011;55322;48.146;11.516;2023-02-21T16:53:06;17.85;;;6.03;;
68377;SDS011;55322;48.146;11.516;2023-02-21T16:55:31;10.37;;;4.20;;
68377;SDS011;55322;48.146;11.516;2023-02-21T16:58:01;18.20;;;5.45;;
68377;SDS011;55322;48.146;11.516;2023-02-21T17:00:28;14.07;;;3.90;;
68377;SDS011;55322;48.146;11.516;2023-02-21T17:02:55;14.03;;;2.83;;
68377;SDS011;55322;48.146;11.516;2023-02-21T17:05:20;20.27;;;4.93;;
68377;SDS011;55322;48.146;11.516;2023-02-21T17:07:50;15.00;;;4.70;;
68377;SDS011;55322;48.146;11.516;2023-02-21T17:10:17;20.40;;;4.25;;
68377;SDS011;55322;48.146;11.516;2023-02-21T17:12:44;11.73;;;2.78;;
68377;SDS011;55322;48.146;11.516;2023-02-21T17:15:09;11.33;;;3.50;;
68377;SDS011;55322;48.146;11.516;2023-02-21T17:17:35;13.30;;;3.38;;
68377;SDS011;55322;48.146;11.516;2023-02-21T17:20:01;15.93;;;3.20;;
68377;SDS011;55322;48.146;11.516;2023-02-21T17:22:27;11.23;;;3.10;;
68377;SDS011;55322;48.146;11.516;2023-02-21T17:24:52;16.47;;;5.67;;
68377;SDS011;55322;48.146;11.516;2023-02-21T17:27:19;50.23;;;20.70;;
68377;SDS011;55322;48.146;11.516;2023-02-21T17:29:45;146.27;;;59.40;;
68377;SDS011;55322;48.146;11.516;2023-02-21T17:32:11;96.47;;;40.05;;
68377;SDS011;55322;48.146;11.516;2023-02-21T17:34:36;113.37;;;48.97;;
68377;SDS011;55322;48.146;11.516;2023-02-21T17:37:02;74.30;;;33.33;;
68377;SDS011;55322;48.146;11.516;2023-02-21T17:39:28;49.70;;;22.65;;
68377;SDS011;55322;48.146;11.516;2023-02-21T17:41:54;40.33;;;18.98;;
68377;SDS011;55322;48.146;11.516;2023-02-21T17:44:20;56.45;;;28.23;;
68377;SDS011;55322;48.146;11.516;2023-02-21T17:46:47;54.75;;;28.27;;
68377;SDS011;55322;48.146;11.516;2023-02-21T17:49:17;71.27;;;39.93;;